createdAt,value
2022-09-01T00:00:02.007Z,70.90
2022-09-01T00:02:30.679Z,70.80
2022-09-01T00:04:59.541Z,70.90
2022-09-01T00:07:30.205Z,71.10
2022-09-01T00:10:00.281Z,71.30
2022-09-01T00:12:29.084Z,71.40
2022-09-01T00:14:57.410Z,71.40
2022-09-01T00:17:26.136Z,71.40
2022-09-01T00:19:54.297Z,71.50
2022-09-01T00:22:22.800Z,71.60
2022-09-01T00:24:51.008Z,71.80
2022-09-01T00:27:20.824Z,72.20
2022-09-01T00:29:56.934Z,71.90
2022-09-01T00:32:25.387Z,71.80
2022-09-01T00:34:53.627Z,71.70
2022-09-01T00:37:21.765Z,71.60
2022-09-01T00:39:49.995Z,71.60
2022-09-01T00:42:18.323Z,71.50
2022-09-01T00:44:48.233Z,71.60
2022-09-01T00:47:16.466Z,71.70
2022-09-01T00:49:48.419Z,71.90
2022-09-01T00:52:20.335Z,72.20
2022-09-01T00:54:54.645Z,72.20
2022-09-01T00:57:23.033Z,72.20
2022-09-01T00:59:57.518Z,71.90
2022-09-01T01:02:26.492Z,71.50
2022-09-01T01:04:56.107Z,71.40
2022-09-01T01:07:27.359Z,71.50
2022-09-01T01:09:55.612Z,71.70
2022-09-01T01:12:23.763Z,71.90
2022-09-01T01:14:53.440Z,72.10
2022-09-01T01:17:23.263Z,72.20
2022-09-01T01:20:11.178Z,72.30
2022-09-01T01:23:06.428Z,72.10
2022-09-01T01:25:39.402Z,72.20
2022-09-01T01:28:15.754Z,72.30
2022-09-01T01:30:52.279Z,72.50
2022-09-01T01:33:21.807Z,72.60
2022-09-01T01:35:51.729Z,72.80
2022-09-01T01:38:22.934Z,72.70
2022-09-01T01:40:54.466Z,72.70
2022-09-01T01:43:23.228Z,72.80
2022-09-01T01:45:53.795Z,72.90
2022-09-01T01:48:24.549Z,73.20
2022-09-01T01:50:54.715Z,73.40
2022-09-01T01:53:23.508Z,73.40
2022-09-01T01:55:53.059Z,73.50
2022-09-01T01:58:24.546Z,73.50
2022-09-01T02:00:55.077Z,73.50
2022-09-01T02:03:26.141Z,73.80
2022-09-01T02:05:55.941Z,74.00
2022-09-01T02:08:26.199Z,74.20
2022-09-01T02:11:00.173Z,74.40
2022-09-01T02:13:30.899Z,74.60
2022-09-01T02:16:01.075Z,74.60
2022-09-01T02:18:34.224Z,74.70
2022-09-01T02:21:03.004Z,74.80
2022-09-01T02:23:32.651Z,75.10
2022-09-01T02:26:18.170Z,75.20
2022-09-01T02:28:54.268Z,75.20
2022-09-01T02:31:24.462Z,75.30
2022-09-01T02:33:54.355Z,75.60
2022-09-01T02:36:22.994Z,75.70
2022-09-01T02:38:53.803Z,75.60
2022-09-01T02:41:29.137Z,75.70
2022-09-01T02:43:57.690Z,75.70
2022-09-01T02:46:26.229Z,75.70
2022-09-01T02:48:54.633Z,75.80
2022-09-01T02:51:25.607Z,75.80
2022-09-01T02:53:54.259Z,75.70
2022-09-01T02:56:27.479Z,75.60
2022-09-01T02:58:56.489Z,75.50
2022-09-01T03:01:27.224Z,75.30
2022-09-01T03:03:57.492Z,75.30
2022-09-01T03:06:26.793Z,75.30
2022-09-01T03:08:59.691Z,75.60
2022-09-01T03:11:31.881Z,75.90
2022-09-01T03:14:00.593Z,76.00
2022-09-01T03:16:30.409Z,76.00
2022-09-01T03:18:59.197Z,76.20
2022-09-01T03:21:27.880Z,76.30
2022-09-01T03:23:58.123Z,76.30
2022-09-01T03:26:26.360Z,76.30
2022-09-01T03:28:55.844Z,76.40
2022-09-01T03:31:27.453Z,76.30
2022-09-01T03:33:59.655Z,76.20
2022-09-01T03:36:30.086Z,76.00
2022-09-01T03:38:58.666Z,75.70
2022-09-01T03:41:28.685Z,75.40
2022-09-01T03:43:59.456Z,75.20
2022-09-01T03:46:36.421Z,75.20
2022-09-01T03:49:07.474Z,75.00
2022-09-01T03:51:39.034Z,74.90
2022-09-01T03:54:07.824Z,74.60
2022-09-01T03:56:35.918Z,74.60
2022-09-01T03:59:05.683Z,74.80
2022-09-01T04:01:41.569Z,74.80
2022-09-01T04:04:09.795Z,74.80
2022-09-01T04:06:38.968Z,74.80
2022-09-01T04:09:07.207Z,74.50
2022-09-01T04:11:36.254Z,74.50
2022-09-01T04:14:06.230Z,74.60
2022-09-01T04:16:53.201Z,74.50
2022-09-01T04:19:26.569Z,74.40
2022-09-01T04:21:57.671Z,74.40
2022-09-01T04:24:28.041Z,74.40
2022-09-01T04:26:58.732Z,74.30
2022-09-01T04:29:28.642Z,74.40
2022-09-01T04:32:02.183Z,74.50
2022-09-01T04:34:37.139Z,74.50
2022-09-01T04:37:09.864Z,74.50
2022-09-01T04:39:39.238Z,74.50
2022-09-01T04:42:09.230Z,74.40
2022-09-01T04:44:40.413Z,74.40
2022-09-01T04:47:12.212Z,74.70
2022-09-01T04:49:40.417Z,74.90
2022-09-01T04:52:08.507Z,75.00
2022-09-01T04:54:38.899Z,75.10
2022-09-01T04:57:07.979Z,75.20
2022-09-01T04:59:36.723Z,75.20
2022-09-01T05:02:07.827Z,75.20
2022-09-01T05:04:36.608Z,75.30
2022-09-01T05:07:08.443Z,75.30
2022-09-01T05:09:38.332Z,75.30
2022-09-01T05:12:12.883Z,75.10
2022-09-01T05:14:48.493Z,75.00
2022-09-01T05:17:18.755Z,75.00
2022-09-01T05:19:51.116Z,75.10
2022-09-01T05:22:22.392Z,75.00
2022-09-01T05:24:51.574Z,75.70
2022-09-01T05:27:23.989Z,74.90
2022-09-01T05:29:53.142Z,75.00
2022-09-01T05:32:26.063Z,75.20
2022-09-01T05:34:54.772Z,75.10
2022-09-01T05:37:22.992Z,75.00
2022-09-01T05:39:52.504Z,74.80
2022-09-01T05:42:21.723Z,74.50
2022-09-01T05:44:52.672Z,74.10
2022-09-01T05:47:23.552Z,73.90
2022-09-01T05:49:53.762Z,73.70
2022-09-01T05:52:26.477Z,73.60
2022-09-01T05:54:55.598Z,73.30
2022-09-01T05:57:34.432Z,73.10
2022-09-01T06:00:10.954Z,73.20
2022-09-01T06:02:42.872Z,73.00
2022-09-01T06:05:11.649Z,73.10
2022-09-01T06:07:42.812Z,73.20
2022-09-01T06:10:13.005Z,73.20
2022-09-01T06:12:41.162Z,73.00
2022-09-01T06:15:16.145Z,73.00
2022-09-01T06:17:46.391Z,72.90
2022-09-01T06:20:18.254Z,72.70
2022-09-01T06:22:47.616Z,72.70
2022-09-01T06:25:17.370Z,72.60
2022-09-01T06:27:46.064Z,72.60
2022-09-01T06:30:23.729Z,72.60
2022-09-01T06:32:54.337Z,72.40
2022-09-01T06:35:25.192Z,72.50
2022-09-01T06:37:53.436Z,72.30
2022-09-01T06:40:21.732Z,72.00
2022-09-01T06:42:52.462Z,71.80
2022-09-01T06:45:23.670Z,71.60
2022-09-01T06:47:57.678Z,71.30
2022-09-01T06:53:35.018Z,70.70
2022-09-01T06:56:04.219Z,70.50
2022-09-01T06:58:32.348Z,70.40
2022-09-01T07:01:00.455Z,69.80
2022-09-01T07:03:30.859Z,69.60
2022-09-01T07:06:01.413Z,69.50
2022-09-01T07:08:31.896Z,69.50
2022-09-01T07:16:51.973Z,69.00
2022-09-01T07:19:48.000Z,68.60
2022-09-01T07:22:35.298Z,68.70
2022-09-01T07:25:12.026Z,68.60
2022-09-01T07:27:41.550Z,68.30
2022-09-01T07:30:12.024Z,67.90
2022-09-01T07:32:47.143Z,67.80
2022-09-01T07:35:19.939Z,67.60
2022-09-01T07:38:48.022Z,67.30
2022-09-01T07:43:32.645Z,67.20
2022-09-01T07:49:29.214Z,67.30
2022-09-01T07:51:48.172Z,67.20
2022-09-01T07:54:16.403Z,67.20
2022-09-01T07:56:44.533Z,67.00
2022-09-01T07:59:15.532Z,66.90
2022-09-01T08:01:43.966Z,66.90
2022-09-01T08:04:12.272Z,67.00
2022-09-01T08:06:41.193Z,67.10
2022-09-01T08:09:11.752Z,67.20
2022-09-01T08:12:01.165Z,67.30
2022-09-01T08:14:33.818Z,67.10
2022-09-01T08:17:34.363Z,67.10
2022-09-01T08:19:51.928Z,67.10
2022-09-01T08:22:23.291Z,66.90
2022-09-01T08:24:54.065Z,66.90
2022-09-01T08:27:22.558Z,67.00
2022-09-01T08:29:50.719Z,66.80
2022-09-01T08:32:20.579Z,66.60
2022-09-01T08:34:48.813Z,66.60
2022-09-01T08:37:16.957Z,66.30
2022-09-01T08:39:46.834Z,66.00
2022-09-01T08:42:33.036Z,65.90
2022-09-01T08:45:12.914Z,66.00
2022-09-01T08:48:04.732Z,65.90
2022-09-01T08:50:30.177Z,65.70
2022-09-01T08:53:12.275Z,65.50
2022-09-01T08:55:44.668Z,65.40
2022-09-01T08:58:17.862Z,65.30
2022-09-01T09:00:54.848Z,65.40
2022-09-01T09:03:40.760Z,65.60
2022-09-01T09:06:18.460Z,65.50
2022-09-01T09:08:57.994Z,65.20
2022-09-01T09:11:53.070Z,64.80
2022-09-01T09:14:36.428Z,64.40
2022-09-01T09:17:05.649Z,64.30
2022-09-01T09:19:36.552Z,64.10
2022-09-01T09:22:07.063Z,63.90
2022-09-01T09:24:48.454Z,63.90
2022-09-01T09:27:22.326Z,63.70
2022-09-01T09:29:54.548Z,63.60
2022-09-01T09:32:39.482Z,63.40
2022-09-01T09:35:29.336Z,63.30
2022-09-01T09:37:57.710Z,62.90
2022-09-01T09:40:27.362Z,62.90
2022-09-01T09:43:06.679Z,62.90
2022-09-01T09:45:42.055Z,63.00
2022-09-01T09:48:27.244Z,63.20
2022-09-01T09:50:55.559Z,63.40
2022-09-01T09:53:29.585Z,63.10
2022-09-01T09:56:03.797Z,63.00
2022-09-01T09:58:37.782Z,62.70
2022-09-01T10:01:16.277Z,62.50
2022-09-01T10:03:49.965Z,62.50
2022-09-01T10:06:33.257Z,62.40
2022-09-01T10:09:03.445Z,62.20
2022-09-01T10:11:40.847Z,62.20
2022-09-01T10:14:35.671Z,62.10
2022-09-01T10:17:13.308Z,62.10
2022-09-01T10:19:49.075Z,62.00
2022-09-01T10:22:17.200Z,61.90
2022-09-01T10:24:50.152Z,62.00
2022-09-01T10:27:23.765Z,62.10
2022-09-01T10:30:13.871Z,62.10
2022-09-01T10:32:55.418Z,62.30
2022-09-01T10:35:27.672Z,62.50
2022-09-01T10:37:59.155Z,62.80
2022-09-01T10:40:43.388Z,63.00
2022-09-01T10:43:44.124Z,63.20
2022-09-01T10:46:51.328Z,63.50
2022-09-01T10:49:58.081Z,63.70
2022-09-01T10:53:17.004Z,63.90
2022-09-01T10:55:49.067Z,63.90
2022-09-01T11:02:22.917Z,64.10
2022-09-01T11:05:21.141Z,64.10
2022-09-01T11:08:15.187Z,63.80
2022-09-01T11:10:54.314Z,63.50
2022-09-01T11:13:45.249Z,63.20
2022-09-01T11:16:50.113Z,63.20
2022-09-01T11:19:44.426Z,62.30
2022-09-01T11:22:23.505Z,61.30
2022-09-01T11:25:40.819Z,60.50
2022-09-01T11:28:44.690Z,60.10
2022-09-01T11:31:31.328Z,60.50
2022-09-01T11:34:19.114Z,61.10
2022-09-01T11:36:53.395Z,61.20
2022-09-01T11:39:34.616Z,61.10
2022-09-01T11:42:07.469Z,60.90
2022-09-01T11:44:43.042Z,60.90
2022-09-01T11:47:17.131Z,60.70
2022-09-01T11:49:55.232Z,60.40
2022-09-01T11:52:26.271Z,60.60
2022-09-01T11:54:56.030Z,60.80
2022-09-01T11:57:28.151Z,60.80
2022-09-01T11:59:57.315Z,60.90
2022-09-01T12:02:28.201Z,61.20
2022-09-01T12:04:58.717Z,61.30
2022-09-01T12:07:39.089Z,61.30
2022-09-01T12:10:20.780Z,61.40
2022-09-01T12:12:49.243Z,61.50
2022-09-01T12:15:23.108Z,61.60
2022-09-01T12:17:51.486Z,61.70
2022-09-01T12:20:29.247Z,61.80
2022-09-01T12:22:58.288Z,61.90
2022-09-01T12:25:30.232Z,61.90
2022-09-01T12:27:59.030Z,61.80
2022-09-01T12:30:28.196Z,61.50
2022-09-01T12:35:47.307Z,60.20
2022-09-01T12:38:24.109Z,59.50
2022-09-01T12:40:55.504Z,58.70
2022-09-01T12:43:33.187Z,58.20
2022-09-01T12:46:04.781Z,57.70
2022-09-01T12:48:34.734Z,57.50
2022-09-01T12:51:05.168Z,57.20
2022-09-01T12:53:36.959Z,57.20
2022-09-01T12:56:22.784Z,57.10
2022-09-01T12:59:04.211Z,57.00
2022-09-01T13:01:34.693Z,57.10
2022-09-01T13:04:25.579Z,57.10
2022-09-01T13:06:55.614Z,56.90
2022-09-01T13:09:23.936Z,57.20
2022-09-01T13:12:09.187Z,57.40
2022-09-01T13:14:37.387Z,57.40
2022-09-01T13:17:06.036Z,57.40
2022-09-01T13:19:42.568Z,57.40
2022-09-01T13:22:11.002Z,57.20
2022-09-01T13:24:40.055Z,57.30
2022-09-01T13:27:26.630Z,57.40
2022-09-01T13:29:55.527Z,57.60
2022-09-01T13:32:24.971Z,57.90
2022-09-01T13:34:54.914Z,58.00
2022-09-01T13:37:23.911Z,58.20
2022-09-01T13:39:52.367Z,58.30
2022-09-01T13:42:22.793Z,58.40
2022-09-01T13:44:55.532Z,58.40
2022-09-01T13:47:29.802Z,58.40
2022-09-01T13:50:17.286Z,58.50
2022-09-01T13:52:55.029Z,58.50
2022-09-01T13:55:26.111Z,58.60
2022-09-01T13:57:56.877Z,58.70
2022-09-01T14:00:29.360Z,58.80
2022-09-01T14:03:00.704Z,58.70
2022-09-01T14:05:31.317Z,58.70
2022-09-01T14:07:59.839Z,58.80
2022-09-01T14:10:29.438Z,58.90
2022-09-01T14:12:59.003Z,58.70
2022-09-01T14:15:27.619Z,58.70
2022-09-01T14:17:58.026Z,58.60
2022-09-01T14:20:30.957Z,58.50
2022-09-01T14:23:02.637Z,58.50
2022-09-01T14:25:31.249Z,58.50
2022-09-01T14:28:02.028Z,58.50
2022-09-01T14:30:32.089Z,58.50
2022-09-01T14:33:00.532Z,58.60
2022-09-01T14:35:33.236Z,58.60
2022-09-01T14:38:05.230Z,58.70
2022-09-01T14:40:33.848Z,58.80
2022-09-01T14:43:03.474Z,58.70
2022-09-01T14:45:31.986Z,58.60
2022-09-01T14:48:01.873Z,58.60
2022-09-01T14:50:32.800Z,58.60
2022-09-01T14:53:03.139Z,58.50
2022-09-01T14:55:32.754Z,58.60
2022-09-01T14:58:01.396Z,58.60
2022-09-01T15:00:35.243Z,58.60
2022-09-01T15:03:03.868Z,58.60
2022-09-01T15:05:39.804Z,58.60
2022-09-01T15:08:09.081Z,58.50
2022-09-01T15:10:38.160Z,59.00
2022-09-01T15:13:06.293Z,58.30
2022-09-01T15:15:35.893Z,58.30
2022-09-01T15:18:04.180Z,58.30
2022-09-01T15:20:48.599Z,58.30
2022-09-01T15:23:18.616Z,58.30
2022-09-01T15:25:46.952Z,58.20
2022-09-01T15:28:15.327Z,58.40
2022-09-01T15:30:45.559Z,58.30
2022-09-01T15:33:16.233Z,58.40
2022-09-01T15:35:46.301Z,58.40
2022-09-01T15:38:17.596Z,58.40
2022-09-01T15:40:47.245Z,58.50
2022-09-01T15:43:24.044Z,58.60
2022-09-01T15:45:53.628Z,58.60
2022-09-01T15:48:21.764Z,58.70
2022-09-01T15:50:50.572Z,58.70
2022-09-01T15:53:19.271Z,58.70
2022-09-01T15:55:49.207Z,58.80
2022-09-01T15:58:19.329Z,59.00
2022-09-01T16:00:47.847Z,59.10
2022-09-01T16:03:17.411Z,59.20
2022-09-01T16:05:45.724Z,59.20
2022-09-01T16:08:13.916Z,59.20
2022-09-01T16:10:43.234Z,59.20
2022-09-01T16:13:13.201Z,59.10
2022-09-01T16:15:49.885Z,59.10
2022-09-01T16:18:30.085Z,59.20
2022-09-01T16:21:05.101Z,59.10
2022-09-01T16:23:40.710Z,59.00
2022-09-01T16:26:09.035Z,59.00
2022-09-01T16:28:38.993Z,59.20
2022-09-01T16:31:12.865Z,59.30
2022-09-01T16:33:48.019Z,59.30
2022-09-01T16:36:31.012Z,59.30
2022-09-01T16:39:08.600Z,59.20
2022-09-01T16:41:48.228Z,59.20
2022-09-01T16:44:27.495Z,59.20
2022-09-01T16:47:07.033Z,59.30
2022-09-01T16:49:44.444Z,59.30
2022-09-01T16:52:20.844Z,59.40
2022-09-01T16:55:02.760Z,59.50
2022-09-01T16:57:39.664Z,59.50
2022-09-01T17:00:11.134Z,59.40
2022-09-01T17:02:49.677Z,59.50
2022-09-01T17:05:25.051Z,59.60
2022-09-01T17:07:59.257Z,59.70
2022-09-01T17:10:40.060Z,59.60
2022-09-01T17:13:17.448Z,59.70
2022-09-01T17:15:51.721Z,59.70
2022-09-01T17:18:28.092Z,59.70
2022-09-01T17:21:03.300Z,59.60
2022-09-01T17:23:38.245Z,59.70
2022-09-01T17:26:13.464Z,59.80
2022-09-01T17:28:47.974Z,60.00
2022-09-01T17:31:24.676Z,60.00
2022-09-01T17:34:07.568Z,60.10
2022-09-01T17:36:46.981Z,60.20
2022-09-01T17:39:26.629Z,60.30
2022-09-01T17:41:58.040Z,60.50
2022-09-01T17:44:35.858Z,60.50
2022-09-01T17:47:12.658Z,60.60
2022-09-01T17:49:51.208Z,60.70
2022-09-01T17:52:28.247Z,60.70
2022-09-01T17:55:01.736Z,60.70
2022-09-01T17:57:39.807Z,60.70
2022-09-01T18:00:17.181Z,60.70
2022-09-01T18:03:27.713Z,60.70
2022-09-01T18:06:04.847Z,60.70
2022-09-01T18:08:40.291Z,60.60
2022-09-01T18:11:12.988Z,60.80
2022-09-01T18:13:53.209Z,60.80
2022-09-01T18:16:24.564Z,60.80
2022-09-01T18:18:53.781Z,60.90
2022-09-01T18:21:24.895Z,61.00
2022-09-01T18:23:59.164Z,61.00
2022-09-01T18:26:32.494Z,61.10
2022-09-01T18:29:02.991Z,61.20
2022-09-01T18:31:52.613Z,61.30
2022-09-01T18:34:28.620Z,61.40
2022-09-01T18:37:04.203Z,61.50
2022-09-01T18:39:46.472Z,61.70
2022-09-01T18:42:20.768Z,61.70
2022-09-01T18:44:55.901Z,61.80
2022-09-01T18:47:31.008Z,62.00
2022-09-01T18:50:08.774Z,62.00
2022-09-01T18:52:57.794Z,62.10
2022-09-01T18:55:34.025Z,62.10
2022-09-01T18:58:07.134Z,62.20
2022-09-01T19:00:40.425Z,62.30
2022-09-01T19:03:16.933Z,62.30
2022-09-01T19:06:00.144Z,62.40
2022-09-01T19:08:49.292Z,62.50
2022-09-01T19:11:32.946Z,62.50
2022-09-01T19:14:10.902Z,62.50
2022-09-01T19:16:55.052Z,62.60
2022-09-01T19:19:35.930Z,62.60
2022-09-01T19:22:04.198Z,62.60
2022-09-01T19:24:39.361Z,62.60
2022-09-01T19:27:14.163Z,62.70
2022-09-01T19:29:48.284Z,62.60
2022-09-01T19:32:20.984Z,62.70
2022-09-01T19:34:54.399Z,62.80
2022-09-01T19:37:22.725Z,62.80
2022-09-01T19:39:54.492Z,62.90
2022-09-01T19:42:28.788Z,62.90
2022-09-01T19:45:07.211Z,63.00
2022-09-01T19:47:41.291Z,63.30
2022-09-01T19:50:17.698Z,63.20
2022-09-01T19:52:55.103Z,63.40
2022-09-01T19:55:31.483Z,63.50
2022-09-01T19:58:04.887Z,63.50
2022-09-01T20:00:50.782Z,63.70
2022-09-01T20:03:23.542Z,63.80
2022-09-01T20:05:58.052Z,63.80
2022-09-01T20:08:34.717Z,63.90
2022-09-01T20:11:10.104Z,64.00
2022-09-01T20:14:02.634Z,64.10
2022-09-01T20:16:35.828Z,64.30
2022-09-01T20:19:10.497Z,64.20
2022-09-01T20:21:44.173Z,64.40
2022-09-01T20:24:19.618Z,64.40
2022-09-01T20:26:56.087Z,64.50
2022-09-01T20:29:29.753Z,64.60
2022-09-01T20:32:00.431Z,64.70
2022-09-01T20:34:33.941Z,65.00
2022-09-01T20:37:07.213Z,65.10
2022-09-01T20:39:58.227Z,65.30
2022-09-01T20:42:35.717Z,65.50
2022-09-01T20:45:12.643Z,65.50
2022-09-01T20:47:40.783Z,65.60
2022-09-01T20:50:12.790Z,65.60
2022-09-01T20:52:48.849Z,65.80
2022-09-01T20:55:33.608Z,65.80
2022-09-01T20:58:10.176Z,66.00
2022-09-01T21:00:47.113Z,66.10
2022-09-01T21:03:32.512Z,66.20
2022-09-01T21:06:10.132Z,66.20
2022-09-01T21:08:46.829Z,66.20
2022-09-01T21:11:34.181Z,66.30
2022-09-01T21:14:17.192Z,66.50
2022-09-01T21:16:57.531Z,66.50
2022-09-01T21:19:36.780Z,66.70
2022-09-01T21:22:07.764Z,66.80
2022-09-01T21:24:36.973Z,66.90
2022-09-01T21:27:08.279Z,67.10
2022-09-01T21:29:55.541Z,67.30
2022-09-01T21:32:25.487Z,67.50
2022-09-01T21:34:54.124Z,67.40
2022-09-01T21:37:23.732Z,67.50
2022-09-01T21:39:53.507Z,67.60
2022-09-01T21:42:23.902Z,67.60
2022-09-01T21:44:54.391Z,67.80
2022-09-01T21:47:24.185Z,67.80
2022-09-01T21:49:52.403Z,67.80
2022-09-01T21:52:20.552Z,68.00
2022-09-01T21:54:48.820Z,68.00
2022-09-01T21:57:17.249Z,68.10
2022-09-01T21:59:45.417Z,68.20
2022-09-01T22:02:13.804Z,68.30
2022-09-01T22:04:43.386Z,68.40
2022-09-01T22:07:15.233Z,68.50
2022-09-01T22:09:43.615Z,68.60
2022-09-01T22:12:11.960Z,68.50
2022-09-01T22:14:40.424Z,68.60
2022-09-01T22:17:08.914Z,68.70
2022-09-01T22:19:37.424Z,68.70
2022-09-01T22:22:06.952Z,68.70
2022-09-01T22:24:35.209Z,68.90
2022-09-01T22:27:03.344Z,68.90
2022-09-01T22:29:31.555Z,68.90
2022-09-01T22:32:00.253Z,69.10
2022-09-01T22:34:28.460Z,69.30
2022-09-01T22:36:56.548Z,69.30
2022-09-01T22:39:26.109Z,69.40
2022-09-01T22:41:54.958Z,69.50
2022-09-01T22:44:23.241Z,69.60
2022-09-01T22:46:51.416Z,69.70
2022-09-01T22:49:19.633Z,69.70
2022-09-01T22:51:47.789Z,69.80
2022-09-01T22:54:16.051Z,69.80
2022-09-01T22:56:45.545Z,69.90
2022-09-01T22:59:15.754Z,70.00
2022-09-01T23:01:47.571Z,70.10
2022-09-01T23:04:17.320Z,70.10
2022-09-01T23:06:50.768Z,70.20
2022-09-01T23:09:19.691Z,70.30
2022-09-01T23:11:50.458Z,70.30
2022-09-01T23:14:19.530Z,70.30
2022-09-01T23:16:51.385Z,70.40
2022-09-01T23:19:20.290Z,70.40
2022-09-01T23:21:48.799Z,70.40
2022-09-01T23:24:19.782Z,70.40
2022-09-01T23:26:50.508Z,70.50
2022-09-01T23:29:18.976Z,70.60
2022-09-01T23:31:47.185Z,70.70
2022-09-01T23:34:16.841Z,70.70
2022-09-01T23:36:45.015Z,70.70
2022-09-01T23:39:13.516Z,70.80
2022-09-01T23:41:41.991Z,70.90
2022-09-01T23:44:14.358Z,70.90
2022-09-01T23:46:44.211Z,70.90
2022-09-01T23:49:13.962Z,71.00
2022-09-01T23:51:42.452Z,71.00
2022-09-01T23:54:11.454Z,71.10
2022-09-01T23:56:40.531Z,71.20
2022-09-01T23:59:09.120Z,71.20
